Time;durP1;ratioP1;P1;durP2;ratioP2;P2;SDS_P1;SDS_P2;PMS_P1;PMS_P2;Temp;Humidity;BMP_temperature;BMP_pressure;BME280_temperature;BME280_humidity;BME280_pressure;Samples;Min_cycle;Max_cycle;Signal;HPM_P1;HPM_P2
2022/10/29 00:01:42;;;;;;;3.60;2.87;;;;;;;;;;5005297;28;20640;-47
2022/10/29 00:04:07;;;;;;;4.00;2.70;;;;;;;;;;5011178;28;20649;-49
2022/10/29 00:06:32;;;;;;;3.13;2.63;;;;;;;;;;5007069;28;20285;-52
2022/10/29 00:08:57;;;;;;;3.53;2.70;;;;;;;;;;5005496;28;20176;-48
2022/10/29 00:11:23;;;;;;;4.50;2.90;;;;;;;;;;5006922;28;20184;-49
2022/10/29 00:13:53;;;;;;;3.67;2.50;;;;;;;;;;5007777;28;20208;-46
2022/10/29 00:16:20;;;;;;;2.92;2.30;;;;;;;;;;5005542;28;20442;-48
2022/10/29 00:18:46;;;;;;;3.60;2.77;;;;;;;;;;5008955;28;20262;-46
2022/10/29 00:21:13;;;;;;;4.73;2.80;;;;;;;;;;5007838;28;20180;-49
2022/10/29 00:23:39;;;;;;;3.77;2.50;;;;;;;;;;5005950;28;20625;-47
2022/10/29 00:28:39;;;;;;;3.50;2.47;;;;;;;;;;4918263;26;20230;-47
2022/10/29 00:31:08;;;;;;;3.90;2.73;;;;;;;;;;4971694;28;20532;-53
2022/10/29 00:33:33;;;;;;;2.97;2.57;;;;;;;;;;4975991;28;20271;-52
2022/10/29 00:36:03;;;;;;;5.40;2.90;;;;;;;;;;4991513;28;20193;-47
2022/10/29 00:38:33;;;;;;;3.90;2.70;;;;;;;;;;4988369;28;20192;-49
2022/10/29 00:40:59;;;;;;;3.40;2.63;;;;;;;;;;4987294;28;20196;-46
2022/10/29 00:43:25;;;;;;;3.23;2.50;;;;;;;;;;4995606;28;20212;-48
2022/10/29 00:46:10;;;;;;;3.47;3.00;;;;;;;;;;4988566;28;20251;-48
2022/10/29 00:48:39;;;;;;;3.33;2.43;;;;;;;;;;4984057;28;20196;-47
2022/10/29 00:51:06;;;;;;;4.33;2.70;;;;;;;;;;4985226;28;20200;-50
2022/10/29 00:53:34;;;;;;;3.50;2.60;;;;;;;;;;4971697;28;20211;-48
2022/10/29 00:56:00;;;;;;;3.70;2.63;;;;;;;;;;4986934;28;20637;-45
2022/10/29 00:58:26;;;;;;;4.37;2.70;;;;;;;;;;4987149;28;20185;-46
2022/10/29 01:00:51;;;;;;;3.50;2.50;;;;;;;;;;4987338;28;20265;-50
2022/10/29 01:03:17;;;;;;;3.57;2.77;;;;;;;;;;4985884;28;20205;-52
2022/10/29 01:05:43;;;;;;;4.10;2.70;;;;;;;;;;4984435;28;20661;-46
2022/10/29 01:08:09;;;;;;;4.40;2.60;;;;;;;;;;4986182;28;20181;-46
2022/10/29 01:10:49;;;;;;;2.83;2.30;;;;;;;;;;4987604;28;20184;-45
2022/10/29 01:13:46;;;;;;;2.93;2.50;;;;;;;;;;4981132;28;20201;-46
2022/10/29 01:16:30;;;;;;;4.13;2.60;;;;;;;;;;4994484;28;20657;-49
2022/10/29 01:19:18;;;;;;;3.42;2.40;;;;;;;;;;4984838;28;20213;-47
2022/10/29 01:22:15;;;;;;;3.60;2.70;;;;;;;;;;4987009;28;20207;-45
2022/10/29 01:24:53;;;;;;;3.63;2.50;;;;;;;;;;4984486;28;20775;-46
2022/10/29 01:27:38;;;;;;;3.10;2.47;;;;;;;;;;4990310;28;20260;-47
2022/10/29 01:30:09;;;;;;;2.80;2.37;;;;;;;;;;4987933;28;20235;-45
2022/10/29 01:32:41;;;;;;;4.30;2.87;;;;;;;;;;4984901;28;20185;-46
2022/10/29 01:35:48;;;;;;;3.23;2.40;;;;;;;;;;4988073;28;20181;-48
2022/10/29 01:38:37;;;;;;;3.20;2.53;;;;;;;;;;4980065;28;20203;-48
2022/10/29 01:41:25;;;;;;;3.27;2.20;;;;;;;;;;4987656;28;20212;-50
2022/10/29 01:43:59;;;;;;;4.80;2.70;;;;;;;;;;4989663;28;20217;-44
2022/10/29 01:46:35;;;;;;;3.70;2.40;;;;;;;;;;4988418;28;20188;-45
2022/10/29 01:49:03;;;;;;;3.93;2.50;;;;;;;;;;4986605;28;20262;-45
2022/10/29 01:51:32;;;;;;;3.27;2.57;;;;;;;;;;4967037;28;20243;-45
2022/10/29 01:53:58;;;;;;;3.53;2.30;;;;;;;;;;4987527;28;20681;-45
2022/10/29 01:56:24;;;;;;;3.10;2.40;;;;;;;;;;4986372;28;20283;-49
2022/10/29 01:58:51;;;;;;;2.80;2.33;;;;;;;;;;4983667;28;20739;-47
2022/10/29 02:01:45;;;;;;;3.37;2.60;;;;;;;;;;4991707;28;20188;-46
2022/10/29 02:04:34;;;;;;;3.30;2.40;;;;;;;;;;4983597;28;20204;-49
2022/10/29 02:07:27;;;;;;;4.70;2.77;;;;;;;;;;4986228;28;20211;-50
2022/10/29 02:09:57;;;;;;;3.10;2.70;;;;;;;;;;4986391;28;20649;-52
2022/10/29 02:12:32;;;;;;;4.47;2.33;;;;;;;;;;4986620;28;20188;-46
2022/10/29 02:15:12;;;;;;;3.10;2.30;;;;;;;;;;4985474;28;20169;-46
2022/10/29 02:17:37;;;;;;;2.93;2.33;;;;;;;;;;4987160;28;20537;-52
2022/10/29 02:20:08;;;;;;;3.47;2.40;;;;;;;;;;4986545;28;20211;-45
2022/10/29 02:22:33;;;;;;;3.37;2.50;;;;;;;;;;4984038;28;20633;-51
2022/10/29 02:24:59;;;;;;;2.97;2.50;;;;;;;;;;4985274;28;20307;-46
2022/10/29 02:27:25;;;;;;;3.43;2.60;;;;;;;;;;4986567;28;20176;-45
2022/10/29 02:29:50;;;;;;;4.10;2.17;;;;;;;;;;4986369;28;20280;-50
2022/10/29 02:32:15;;;;;;;3.67;2.67;;;;;;;;;;4983229;28;20212;-45
2022/10/29 02:34:40;;;;;;;3.47;2.33;;;;;;;;;;4985627;28;20197;-46
2022/10/29 02:37:06;;;;;;;3.67;2.50;;;;;;;;;;4986796;28;20528;-45
2022/10/29 02:39:31;;;;;;;3.07;2.37;;;;;;;;;;4984839;28;20654;-53
2022/10/29 02:41:57;;;;;;;4.57;2.73;;;;;;;;;;4980512;28;20211;-46
2022/10/29 02:44:22;;;;;;;3.27;2.30;;;;;;;;;;4986760;28;20235;-45
2022/10/29 02:46:47;;;;;;;2.90;2.33;;;;;;;;;;4986416;28;20263;-46
2022/10/29 02:49:12;;;;;;;3.97;2.50;;;;;;;;;;4985030;28;20319;-46
2022/10/29 02:51:37;;;;;;;3.53;2.73;;;;;;;;;;4989944;28;20267;-45
2022/10/29 02:54:03;;;;;;;2.90;2.40;;;;;;;;;;4986731;28;20208;-46
2022/10/29 02:56:28;;;;;;;3.30;2.57;;;;;;;;;;4987671;28;20255;-44
2022/10/29 02:58:54;;;;;;;3.90;2.43;;;;;;;;;;4982227;28;20292;-45
2022/10/29 03:01:19;;;;;;;3.87;2.70;;;;;;;;;;4986274;28;20192;-44
2022/10/29 03:03:44;;;;;;;2.87;2.40;;;;;;;;;;4987487;28;20239;-44
2022/10/29 03:06:14;;;;;;;2.60;2.33;;;;;;;;;;4990143;28;20181;-44
2022/10/29 03:08:40;;;;;;;2.70;2.10;;;;;;;;;;4991247;28;20219;-43
2022/10/29 03:11:05;;;;;;;3.63;2.30;;;;;;;;;;4991094;28;20719;-45
2022/10/29 03:13:30;;;;;;;2.60;2.13;;;;;;;;;;4990670;28;20263;-43
2022/10/29 03:15:55;;;;;;;2.80;2.30;;;;;;;;;;4985963;28;20181;-45
2022/10/29 03:18:21;;;;;;;4.33;2.40;;;;;;;;;;4989872;28;20185;-47
2022/10/29 03:20:46;;;;;;;3.13;2.40;;;;;;;;;;4991358;28;20205;-45
2022/10/29 03:23:11;;;;;;;4.27;2.43;;;;;;;;;;4989721;28;20205;-47
2022/10/29 03:25:37;;;;;;;4.70;2.70;;;;;;;;;;4991943;28;20192;-47
2022/10/29 03:28:02;;;;;;;3.23;2.37;;;;;;;;;;4987807;28;20189;-45
2022/10/29 03:30:27;;;;;;;3.23;2.63;;;;;;;;;;4989753;28;20176;-48
2022/10/29 03:32:52;;;;;;;2.27;2.07;;;;;;;;;;4989547;28;20319;-48
2022/10/29 03:35:18;;;;;;;3.00;2.37;;;;;;;;;;4985654;28;20185;-48
2022/10/29 03:37:43;;;;;;;3.57;2.40;;;;;;;;;;4989652;28;20184;-45
2022/10/29 03:40:09;;;;;;;2.57;2.20;;;;;;;;;;4989892;28;20212;-45
2022/10/29 03:42:34;;;;;;;4.33;2.33;;;;;;;;;;4992176;28;20184;-47
2022/10/29 03:45:00;;;;;;;4.23;2.40;;;;;;;;;;4991755;28;20181;-45
2022/10/29 03:47:26;;;;;;;3.30;2.30;;;;;;;;;;4990055;28;20664;-46
2022/10/29 03:49:52;;;;;;;3.07;2.33;;;;;;;;;;4986758;28;20189;-45
2022/10/29 03:52:17;;;;;;;3.23;2.67;;;;;;;;;;4989383;28;20181;-45
2022/10/29 03:54:42;;;;;;;3.40;2.37;;;;;;;;;;4990663;28;20743;-47
2022/10/29 03:57:08;;;;;;;2.37;2.10;;;;;;;;;;4989515;28;20207;-45
2022/10/29 03:59:33;;;;;;;2.60;2.23;;;;;;;;;;4987496;28;20212;-46
2022/10/29 04:01:58;;;;;;;2.73;2.10;;;;;;;;;;4989024;28;20653;-47
2022/10/29 04:04:24;;;;;;;2.47;2.00;;;;;;;;;;4988146;28;20624;-45
2022/10/29 04:06:49;;;;;;;3.30;2.00;;;;;;;;;;4989687;28;20189;-46
2022/10/29 04:09:14;;;;;;;2.53;2.30;;;;;;;;;;4988484;28;20188;-46
2022/10/29 04:11:39;;;;;;;2.80;2.20;;;;;;;;;;4988103;28;20279;-52
2022/10/29 04:14:04;;;;;;;2.87;2.30;;;;;;;;;;4988285;28;20280;-53
2022/10/29 04:16:30;;;;;;;3.33;2.37;;;;;;;;;;4985017;28;20181;-48
2022/10/29 04:18:55;;;;;;;2.83;2.23;;;;;;;;;;4988326;28;20581;-47
2022/10/29 04:21:20;;;;;;;3.60;2.37;;;;;;;;;;4994795;28;20185;-45
2022/10/29 04:23:47;;;;;;;2.77;2.33;;;;;;;;;;4987819;28;20296;-45
2022/10/29 04:26:12;;;;;;;3.60;2.13;;;;;;;;;;4988150;28;20189;-47
2022/10/29 04:28:38;;;;;;;2.80;2.10;;;;;;;;;;4989844;28;20188;-51
2022/10/29 04:31:06;;;;;;;2.80;2.30;;;;;;;;;;4986599;28;20181;-51
2022/10/29 04:33:32;;;;;;;2.83;2.17;;;;;;;;;;4967861;28;20262;-52
2022/10/29 04:35:57;;;;;;;2.37;2.03;;;;;;;;;;4987446;28;20558;-47
2022/10/29 04:38:22;;;;;;;2.70;2.17;;;;;;;;;;4988315;28;20267;-52
2022/10/29 04:40:48;;;;;;;2.20;2.00;;;;;;;;;;4988205;28;20892;-46
2022/10/29 04:43:14;;;;;;;3.00;2.30;;;;;;;;;;4984570;28;20687;-48
2022/10/29 04:45:39;;;;;;;3.23;2.13;;;;;;;;;;4989875;28;20220;-53
2022/10/29 04:48:05;;;;;;;2.60;2.00;;;;;;;;;;4986848;28;20204;-46
2022/10/29 04:50:31;;;;;;;3.47;1.97;;;;;;;;;;4989080;28;21102;-47
2022/10/29 04:53:00;;;;;;;2.37;2.00;;;;;;;;;;4988911;28;20205;-47
2022/10/29 04:55:26;;;;;;;3.97;2.20;;;;;;;;;;4972254;28;20181;-50
2022/10/29 04:57:52;;;;;;;3.73;1.90;;;;;;;;;;4987072;28;21082;-46
2022/10/29 05:00:17;;;;;;;2.67;1.90;;;;;;;;;;4981096;28;21755;-45
2022/10/29 05:02:47;;;;;;;2.70;2.10;;;;;;;;;;4985603;28;20185;-54
2022/10/29 05:05:12;;;;;;;3.13;2.40;;;;;;;;;;4988703;28;20653;-49
2022/10/29 05:07:38;;;;;;;2.87;2.37;;;;;;;;;;4987561;28;20197;-49
2022/10/29 05:10:03;;;;;;;3.03;2.00;;;;;;;;;;4989680;28;20188;-55
2022/10/29 05:12:29;;;;;;;3.60;2.40;;;;;;;;;;4988379;28;20185;-53
2022/10/29 05:14:54;;;;;;;2.27;2.00;;;;;;;;;;4987917;28;20200;-47
2022/10/29 05:17:19;;;;;;;2.60;2.20;;;;;;;;;;4984815;28;20181;-52
2022/10/29 05:19:44;;;;;;;3.47;2.20;;;;;;;;;;4987131;28;20216;-49
2022/10/29 05:22:10;;;;;;;2.13;1.90;;;;;;;;;;4988791;28;20176;-51
2022/10/29 05:24:35;;;;;;;3.33;2.40;;;;;;;;;;4990429;28;20630;-49
2022/10/29 05:27:01;;;;;;;2.67;2.13;;;;;;;;;;4977352;28;20322;-49
2022/10/29 05:29:26;;;;;;;2.53;2.00;;;;;;;;;;4986403;28;20181;-52
2022/10/29 05:31:53;;;;;;;2.50;2.00;;;;;;;;;;4989269;28;20177;-47
2022/10/29 05:34:19;;;;;;;2.33;2.00;;;;;;;;;;4989292;28;20287;-48
2022/10/29 05:36:44;;;;;;;2.53;2.00;;;;;;;;;;4985840;28;20276;-53
2022/10/29 05:39:10;;;;;;;3.23;2.13;;;;;;;;;;4988265;28;20663;-46
2022/10/29 05:41:35;;;;;;;2.60;2.20;;;;;;;;;;4986725;28;20191;-55
2022/10/29 05:44:00;;;;;;;3.03;2.30;;;;;;;;;;4984787;28;20224;-49
2022/10/29 05:46:25;;;;;;;2.70;2.13;;;;;;;;;;4982951;28;20183;-55
2022/10/29 05:48:51;;;;;;;4.03;2.10;;;;;;;;;;4987389;28;20184;-46
2022/10/29 05:51:16;;;;;;;2.37;2.00;;;;;;;;;;4988211;28;20182;-45
2022/10/29 05:53:41;;;;;;;2.30;2.10;;;;;;;;;;4980359;28;20321;-52
2022/10/29 05:56:09;;;;;;;2.63;2.00;;;;;;;;;;4986617;28;20212;-45
2022/10/29 05:58:35;;;;;;;3.60;2.10;;;;;;;;;;4988415;28;20207;-45
2022/10/29 06:01:04;;;;;;;2.50;2.20;;;;;;;;;;4987165;28;20669;-47
2022/10/29 06:03:30;;;;;;;3.70;2.10;;;;;;;;;;4985897;28;20205;-55
2022/10/29 06:05:55;;;;;;;2.23;1.90;;;;;;;;;;4987590;28;20259;-45
2022/10/29 06:08:20;;;;;;;2.43;2.10;;;;;;;;;;4984803;28;20216;-48
2022/10/29 06:10:45;;;;;;;3.27;2.10;;;;;;;;;;4984411;28;20188;-47
2022/10/29 06:13:12;;;;;;;2.83;2.07;;;;;;;;;;4986904;28;20211;-47
2022/10/29 06:15:38;;;;;;;3.00;2.27;;;;;;;;;;4986483;28;20193;-45
2022/10/29 06:18:03;;;;;;;2.93;2.10;;;;;;;;;;4985654;28;20520;-49
2022/10/29 06:20:29;;;;;;;2.30;1.83;;;;;;;;;;4986678;28;20351;-50
2022/10/29 06:22:57;;;;;;;2.70;2.17;;;;;;;;;;4986382;28;20232;-46
2022/10/29 06:25:26;;;;;;;2.07;1.87;;;;;;;;;;4986828;28;20864;-47
2022/10/29 06:28:01;;;;;;;2.50;1.90;;;;;;;;;;4984039;28;20201;-49
2022/10/29 06:30:28;;;;;;;2.77;2.00;;;;;;;;;;4981975;28;20188;-47
2022/10/29 06:32:53;;;;;;;2.57;2.10;;;;;;;;;;4983498;28;20223;-48
2022/10/29 06:35:19;;;;;;;3.13;2.00;;;;;;;;;;4978541;28;20193;-48
2022/10/29 06:37:44;;;;;;;2.70;2.10;;;;;;;;;;4982272;28;20273;-45
2022/10/29 06:40:09;;;;;;;3.90;2.10;;;;;;;;;;4986417;28;20215;-47
2022/10/29 06:42:35;;;;;;;3.20;2.40;;;;;;;;;;4991398;28;20613;-49
2022/10/29 06:45:00;;;;;;;2.80;2.13;;;;;;;;;;4994867;28;20177;-50
2022/10/29 06:47:25;;;;;;;3.03;1.80;;;;;;;;;;4987165;28;20208;-46
2022/10/29 06:49:50;;;;;;;2.43;2.00;;;;;;;;;;4989477;28;20700;-49
2022/10/29 06:52:16;;;;;;;2.83;2.00;;;;;;;;;;4991218;28;20523;-46
2022/10/29 06:54:41;;;;;;;2.47;2.00;;;;;;;;;;4984963;28;20614;-46
2022/10/29 06:57:06;;;;;;;3.57;2.03;;;;;;;;;;4987456;28;20189;-45
2022/10/29 06:59:31;;;;;;;2.67;1.90;;;;;;;;;;4990566;28;20208;-45
2022/10/29 07:01:56;;;;;;;2.30;1.93;;;;;;;;;;4989222;28;20212;-44
2022/10/29 07:04:22;;;;;;;2.47;1.60;;;;;;;;;;4987954;28;20208;-45
2022/10/29 07:06:47;;;;;;;2.03;1.67;;;;;;;;;;4985473;28;20199;-44
2022/10/29 07:09:12;;;;;;;3.20;2.07;;;;;;;;;;4989660;28;20653;-45
2022/10/29 07:11:38;;;;;;;2.97;2.10;;;;;;;;;;4989017;28;20634;-44
2022/10/29 07:14:04;;;;;;;2.60;1.90;;;;;;;;;;4984566;28;20197;-45
2022/10/29 07:16:30;;;;;;;2.70;1.90;;;;;;;;;;4982161;28;20193;-45
2022/10/29 07:18:55;;;;;;;2.27;1.90;;;;;;;;;;4978108;28;20199;-45
2022/10/29 07:21:20;;;;;;;3.27;2.00;;;;;;;;;;4989919;28;20188;-45
2022/10/29 07:23:46;;;;;;;2.30;1.77;;;;;;;;;;4987884;28;20192;-45
2022/10/29 07:26:11;;;;;;;2.87;2.20;;;;;;;;;;4989458;28;20183;-45
2022/10/29 07:28:36;;;;;;;2.30;1.97;;;;;;;;;;4984073;28;20232;-45
2022/10/29 07:31:01;;;;;;;3.07;2.10;;;;;;;;;;4986828;28;20874;-45
2022/10/29 07:33:29;;;;;;;2.67;2.10;;;;;;;;;;4985738;28;20204;-44
2022/10/29 07:35:56;;;;;;;3.13;1.87;;;;;;;;;;4987968;28;20189;-44
2022/10/29 07:38:22;;;;;;;2.53;1.97;;;;;;;;;;4970190;28;20184;-45
2022/10/29 07:40:48;;;;;;;2.87;1.80;;;;;;;;;;4985647;28;22044;-51
2022/10/29 07:43:14;;;;;;;2.67;2.10;;;;;;;;;;4985393;28;20205;-46
2022/10/29 07:45:41;;;;;;;2.83;2.17;;;;;;;;;;4988661;28;20184;-47
2022/10/29 07:48:08;;;;;;;2.17;1.80;;;;;;;;;;4989947;28;20674;-47
2022/10/29 07:50:33;;;;;;;2.33;1.97;;;;;;;;;;4990615;28;20655;-56
2022/10/29 07:52:59;;;;;;;2.53;1.87;;;;;;;;;;4988505;28;20210;-47
2022/10/29 07:55:25;;;;;;;3.70;1.90;;;;;;;;;;4988168;28;20723;-45
2022/10/29 07:58:00;;;;;;;2.70;2.10;;;;;;;;;;4987703;28;20177;-45
2022/10/29 08:00:26;;;;;;;2.10;1.90;;;;;;;;;;4982145;28;20294;-43
2022/10/29 08:02:55;;;;;;;3.70;2.30;;;;;;;;;;4989354;28;20205;-45
2022/10/29 08:05:21;;;;;;;2.37;1.83;;;;;;;;;;4986541;28;20196;-44
2022/10/29 08:07:46;;;;;;;2.28;1.92;;;;;;;;;;4987517;28;20181;-44
2022/10/29 08:10:12;;;;;;;2.40;1.80;;;;;;;;;;4990295;28;20183;-45
2022/10/29 08:12:37;;;;;;;3.47;1.93;;;;;;;;;;4990461;28;20569;-45
2022/10/29 08:15:04;;;;;;;2.67;1.90;;;;;;;;;;4990237;28;20263;-45
2022/10/29 08:17:30;;;;;;;2.20;1.80;;;;;;;;;;4989196;28;20649;-45
2022/10/29 08:19:55;;;;;;;2.88;2.00;;;;;;;;;;4983209;28;20209;-45
2022/10/29 08:22:20;;;;;;;3.03;1.92;;;;;;;;;;4990720;28;20179;-44
2022/10/29 08:24:46;;;;;;;2.20;1.80;;;;;;;;;;4983581;28;20209;-45
2022/10/29 08:27:11;;;;;;;2.93;2.00;;;;;;;;;;4989956;28;20558;-45
2022/10/29 08:29:36;;;;;;;2.90;2.10;;;;;;;;;;4987448;28;20184;-45
2022/10/29 08:32:01;;;;;;;2.50;1.95;;;;;;;;;;4985791;28;20184;-44
2022/10/29 08:34:27;;;;;;;3.05;2.00;;;;;;;;;;4988947;28;20209;-45
2022/10/29 08:36:52;;;;;;;2.22;1.92;;;;;;;;;;4990636;28;20183;-45
2022/10/29 08:39:17;;;;;;;2.78;2.03;;;;;;;;;;4988704;28;20199;-46
2022/10/29 08:41:42;;;;;;;3.27;2.20;;;;;;;;;;4987449;28;20653;-48
2022/10/29 08:44:24;;;;;;;1.98;1.55;;;;;;;;;;4987949;28;20651;-45
2022/10/29 08:46:53;;;;;;;3.22;1.95;;;;;;;;;;4987213;28;20661;-46
2022/10/29 08:49:20;;;;;;;2.92;1.90;;;;;;;;;;4987549;28;20644;-47
2022/10/29 08:51:51;;;;;;;2.90;1.83;;;;;;;;;;4987697;28;20603;-45
2022/10/29 08:54:16;;;;;;;2.27;1.97;;;;;;;;;;4985032;28;20617;-45
2022/10/29 08:56:49;;;;;;;2.03;1.80;;;;;;;;;;4989254;28;20722;-45
2022/10/29 08:59:22;;;;;;;2.13;1.85;;;;;;;;;;4988831;28;20203;-45
2022/10/29 09:01:48;;;;;;;2.90;2.00;;;;;;;;;;4983439;28;20188;-46
2022/10/29 09:04:28;;;;;;;2.03;1.73;;;;;;;;;;4984806;28;20212;-52
2022/10/29 09:07:02;;;;;;;2.25;1.67;;;;;;;;;;4986424;28;20943;-49
2022/10/29 09:09:38;;;;;;;1.92;1.73;;;;;;;;;;4984663;28;20184;-47
2022/10/29 09:12:22;;;;;;;1.88;1.70;;;;;;;;;;4981860;28;20227;-44
2022/10/29 09:15:16;;;;;;;3.25;1.80;;;;;;;;;;4988431;28;20215;-44
2022/10/29 09:18:06;;;;;;;2.58;2.00;;;;;;;;;;4987728;28;20193;-45
2022/10/29 09:20:41;;;;;;;2.35;1.98;;;;;;;;;;4987761;28;20196;-51
2022/10/29 09:23:06;;;;;;;7.00;4.22;;;;;;;;;;4996992;28;20891;-49
2022/10/29 09:25:46;;;;;;;16.58;7.00;;;;;;;;;;4999813;28;20290;-51
2022/10/29 09:28:12;;;;;;;12.05;5.47;;;;;;;;;;4904742;28;75183;-49
2022/10/29 09:31:00;;;;;;;12.32;6.80;;;;;;;;;;5002904;28;20262;-49
2022/10/29 09:33:25;;;;;;;11.88;7.25;;;;;;;;;;5001041;28;20281;-48
2022/10/29 09:35:56;;;;;;;17.02;7.55;;;;;;;;;;5001800;28;20188;-47
2022/10/29 09:38:34;;;;;;;19.55;7.55;;;;;;;;;;5002267;28;20180;-54
2022/10/29 09:41:01;;;;;;;13.02;6.75;;;;;;;;;;5000620;28;20204;-56
2022/10/29 09:43:44;;;;;;;16.60;7.10;;;;;;;;;;4989767;28;20673;-56
2022/10/29 09:46:21;;;;;;;12.65;7.03;;;;;;;;;;5003345;28;20206;-56
2022/10/29 09:48:58;;;;;;;15.93;6.95;;;;;;;;;;5003051;28;20243;-55
2022/10/29 09:51:49;;;;;;;11.50;6.93;;;;;;;;;;5003409;28;20187;-55
2022/10/29 09:54:15;;;;;;;12.02;5.82;;;;;;;;;;5002435;28;20280;-55
2022/10/29 09:56:41;;;;;;;9.00;6.22;;;;;;;;;;4984783;28;20180;-55
2022/10/29 09:59:28;;;;;;;15.57;6.82;;;;;;;;;;5002642;28;20617;-55
2022/10/29 10:01:53;;;;;;;14.88;6.50;;;;;;;;;;5003930;28;20184;-56
2022/10/29 10:04:39;;;;;;;16.02;6.07;;;;;;;;;;4996913;28;20196;-55
2022/10/29 10:07:10;;;;;;;15.18;6.82;;;;;;;;;;5001375;28;20193;-58
2022/10/29 10:09:56;;;;;;;16.08;6.85;;;;;;;;;;4998796;28;20180;-57
2022/10/29 10:12:43;;;;;;;12.77;6.18;;;;;;;;;;5000274;28;20259;-59
2022/10/29 10:15:14;;;;;;;12.75;6.03;;;;;;;;;;4990052;28;20222;-52
2022/10/29 10:17:59;;;;;;;14.23;6.68;;;;;;;;;;5000394;28;20594;-58
2022/10/29 10:20:58;;;;;;;13.20;6.28;;;;;;;;;;4996292;28;20197;-55
2022/10/29 10:23:29;;;;;;;12.55;5.50;;;;;;;;;;5014291;28;20199;-56
2022/10/29 10:25:57;;;;;;;11.82;6.03;;;;;;;;;;4986718;28;20306;-54
2022/10/29 10:28:30;;;;;;;13.63;5.93;;;;;;;;;;4992477;28;20337;-59
2022/10/29 10:31:14;;;;;;;10.63;5.85;;;;;;;;;;4992795;28;20184;-54
2022/10/29 10:33:53;;;;;;;11.77;5.70;;;;;;;;;;4990307;28;20693;-54
2022/10/29 10:36:24;;;;;;;8.93;5.53;;;;;;;;;;4997786;28;20176;-55
2022/10/29 10:38:52;;;;;;;11.48;6.43;;;;;;;;;;4997813;28;20345;-55
2022/10/29 10:41:23;;;;;;;13.35;6.78;;;;;;;;;;4989786;28;20259;-56
2022/10/29 10:43:48;;;;;;;10.88;5.80;;;;;;;;;;5001705;28;20195;-63
2022/10/29 10:46:21;;;;;;;16.63;6.15;;;;;;;;;;5002169;28;20176;-56
2022/10/29 10:48:59;;;;;;;10.10;5.68;;;;;;;;;;4996498;28;20214;-56
2022/10/29 10:51:30;;;;;;;12.77;5.72;;;;;;;;;;4998271;28;20180;-56
2022/10/29 10:53:57;;;;;;;14.18;6.15;;;;;;;;;;5005465;28;20200;-56
2022/10/29 10:56:22;;;;;;;10.40;5.47;;;;;;;;;;4989368;28;20892;-56
2022/10/29 10:58:57;;;;;;;8.75;5.53;;;;;;;;;;5002168;28;20180;-56
2022/10/29 11:01:30;;;;;;;12.57;5.45;;;;;;;;;;4999263;28;20191;-56
2022/10/29 11:04:16;;;;;;;8.77;5.30;;;;;;;;;;4986780;28;20746;-57
2022/10/29 11:06:45;;;;;;;12.18;6.63;;;;;;;;;;4993830;28;20661;-57
2022/10/29 11:09:26;;;;;;;11.27;5.22;;;;;;;;;;4997784;28;20200;-56
2022/10/29 11:12:01;;;;;;;9.23;5.50;;;;;;;;;;4996851;28;20184;-56
2022/10/29 11:14:33;;;;;;;12.07;5.20;;;;;;;;;;5001409;28;20195;-56
2022/10/29 11:17:01;;;;;;;12.20;5.93;;;;;;;;;;4990205;28;20564;-57
2022/10/29 11:19:39;;;;;;;11.75;5.38;;;;;;;;;;5006079;28;20204;-57
2022/10/29 11:22:31;;;;;;;11.35;5.55;;;;;;;;;;4985780;28;20365;-54
2022/10/29 11:25:17;;;;;;;9.30;5.20;;;;;;;;;;5005719;28;20226;-57
2022/10/29 11:27:57;;;;;;;9.23;5.30;;;;;;;;;;5008622;28;20191;-52
2022/10/29 11:30:23;;;;;;;10.00;5.80;;;;;;;;;;5010707;28;20226;-51
2022/10/29 11:32:57;;;;;;;13.45;5.18;;;;;;;;;;5009678;28;20180;-55
2022/10/29 11:35:42;;;;;;;9.55;5.47;;;;;;;;;;4995808;28;20176;-55
2022/10/29 11:38:19;;;;;;;9.23;5.10;;;;;;;;;;4998060;28;20229;-47
2022/10/29 11:40:53;;;;;;;9.43;5.55;;;;;;;;;;5007547;28;20273;-46
2022/10/29 11:43:20;;;;;;;17.58;5.95;;;;;;;;;;5007364;28;20567;-46
2022/10/29 11:46:07;;;;;;;10.45;5.57;;;;;;;;;;5002710;28;20645;-49
2022/10/29 11:48:52;;;;;;;12.38;5.10;;;;;;;;;;5006209;28;20187;-48
2022/10/29 11:51:23;;;;;;;9.40;5.30;;;;;;;;;;4998910;28;20586;-47
2022/10/29 11:54:09;;;;;;;13.27;5.15;;;;;;;;;;5006670;28;20566;-51
2022/10/29 11:56:49;;;;;;;8.18;4.88;;;;;;;;;;5005898;28;20242;-49
2022/10/29 11:59:34;;;;;;;10.85;5.70;;;;;;;;;;4992292;28;20204;-47
2022/10/29 12:02:10;;;;;;;11.10;5.05;;;;;;;;;;5006966;28;20553;-46
2022/10/29 12:05:21;;;;;;;12.15;4.88;;;;;;;;;;5009574;28;20207;-48
2022/10/29 12:08:02;;;;;;;11.23;5.28;;;;;;;;;;5004323;28;20195;-49
2022/10/29 12:10:46;;;;;;;13.05;5.10;;;;;;;;;;5000388;28;20691;-46
2022/10/29 12:13:39;;;;;;;10.90;5.30;;;;;;;;;;5006261;28;20255;-47
2022/10/29 12:16:17;;;;;;;9.00;5.00;;;;;;;;;;5004187;28;20272;-47
2022/10/29 12:18:51;;;;;;;10.20;5.65;;;;;;;;;;5006712;28;20603;-47
2022/10/29 12:21:23;;;;;;;11.38;4.97;;;;;;;;;;5003475;28;20180;-45
2022/10/29 12:24:15;;;;;;;8.77;5.55;;;;;;;;;;5004428;28;20208;-46
2022/10/29 12:26:53;;;;;;;10.45;5.15;;;;;;;;;;5000701;28;20198;-46
2022/10/29 12:29:24;;;;;;;10.73;5.18;;;;;;;;;;5009159;28;20184;-46
2022/10/29 12:31:58;;;;;;;10.13;5.63;;;;;;;;;;5006971;28;20556;-48
2022/10/29 12:34:41;;;;;;;9.52;5.20;;;;;;;;;;4997613;28;20192;-48
2022/10/29 12:37:41;;;;;;;8.30;5.18;;;;;;;;;;5000698;28;20176;-48
2022/10/29 12:40:24;;;;;;;8.30;5.20;;;;;;;;;;5000991;28;20194;-51
2022/10/29 12:42:50;;;;;;;9.73;5.15;;;;;;;;;;5003038;28;20227;-47
2022/10/29 12:45:49;;;;;;;9.82;5.20;;;;;;;;;;5007613;28;20180;-47
2022/10/29 12:48:40;;;;;;;9.07;5.30;;;;;;;;;;5003999;28;20743;-48
2022/10/29 12:51:22;;;;;;;8.63;4.57;;;;;;;;;;4987540;28;20633;-48
2022/10/29 12:54:06;;;;;;;8.75;5.25;;;;;;;;;;4999595;28;20219;-47
2022/10/29 12:56:31;;;;;;;10.80;5.07;;;;;;;;;;5005950;28;20184;-47
2022/10/29 12:58:58;;;;;;;12.32;5.20;;;;;;;;;;5007899;28;20535;-49
2022/10/29 13:01:26;;;;;;;8.80;4.85;;;;;;;;;;5004379;28;20176;-54
2022/10/29 13:03:51;;;;;;;8.02;4.78;;;;;;;;;;5006487;28;20626;-55
2022/10/29 13:06:43;;;;;;;9.48;4.68;;;;;;;;;;5005328;28;20176;-54
2022/10/29 13:09:14;;;;;;;9.98;4.80;;;;;;;;;;4983702;28;20608;-55
2022/10/29 13:11:55;;;;;;;8.73;4.72;;;;;;;;;;5005255;28;20283;-55
2022/10/29 13:14:34;;;;;;;9.45;5.00;;;;;;;;;;5006603;28;20231;-55
2022/10/29 13:17:02;;;;;;;7.97;4.97;;;;;;;;;;5004682;28;20730;-55
2022/10/29 13:19:40;;;;;;;8.43;4.90;;;;;;;;;;5002723;28;20207;-55
2022/10/29 13:22:33;;;;;;;7.70;4.90;;;;;;;;;;5005681;28;20207;-55
2022/10/29 13:25:33;;;;;;;11.93;4.85;;;;;;;;;;5005233;28;20180;-55
2022/10/29 13:28:07;;;;;;;8.35;4.57;;;;;;;;;;5003147;28;20271;-48
2022/10/29 13:30:44;;;;;;;9.40;4.80;;;;;;;;;;5004957;28;20204;-50
2022/10/29 13:33:27;;;;;;;7.28;4.32;;;;;;;;;;5000337;28;20199;-55
2022/10/29 13:35:55;;;;;;;10.35;4.63;;;;;;;;;;5003257;28;20187;-56
2022/10/29 13:38:42;;;;;;;7.80;4.95;;;;;;;;;;4998279;28;20809;-54
2022/10/29 13:41:15;;;;;;;11.05;4.93;;;;;;;;;;5000144;28;20199;-55
2022/10/29 13:44:09;;;;;;;7.10;4.53;;;;;;;;;;5006258;28;20279;-50
2022/10/29 13:46:46;;;;;;;8.25;5.00;;;;;;;;;;5001578;28;20656;-53
2022/10/29 13:49:40;;;;;;;9.43;4.55;;;;;;;;;;5002644;28;20176;-51
2022/10/29 13:52:09;;;;;;;9.90;4.65;;;;;;;;;;4999405;28;20238;-55
2022/10/29 13:54:37;;;;;;;10.57;5.07;;;;;;;;;;5006809;28;20215;-55
2022/10/29 13:57:09;;;;;;;10.30;5.25;;;;;;;;;;4996601;28;20172;-52
2022/10/29 13:59:41;;;;;;;8.85;4.85;;;;;;;;;;5005565;28;20215;-53
2022/10/29 14:02:29;;;;;;;9.45;4.53;;;;;;;;;;4998487;28;20195;-53
2022/10/29 14:05:05;;;;;;;8.07;4.88;;;;;;;;;;5003507;28;20200;-53
2022/10/29 14:07:57;;;;;;;6.55;4.22;;;;;;;;;;4999111;28;20194;-55
2022/10/29 14:10:26;;;;;;;8.38;4.72;;;;;;;;;;5005353;28;20204;-51
2022/10/29 14:12:56;;;;;;;8.05;4.90;;;;;;;;;;5000400;28;20291;-51
2022/10/29 14:15:21;;;;;;;9.32;4.95;;;;;;;;;;5005501;28;20203;-54
2022/10/29 14:17:46;;;;;;;8.52;4.65;;;;;;;;;;5005109;28;20648;-48
2022/10/29 14:20:27;;;;;;;7.97;4.63;;;;;;;;;;5005377;28;20555;-48
2022/10/29 14:22:52;;;;;;;8.20;4.28;;;;;;;;;;4999541;28;20204;-56
2022/10/29 14:25:30;;;;;;;8.85;4.78;;;;;;;;;;5005638;28;20194;-55
2022/10/29 14:28:16;;;;;;;7.75;4.53;;;;;;;;;;5004591;28;20691;-57
2022/10/29 14:30:41;;;;;;;7.93;5.00;;;;;;;;;;5000867;28;20685;-52
2022/10/29 14:33:17;;;;;;;8.88;4.90;;;;;;;;;;5003769;28;20525;-52
2022/10/29 14:35:43;;;;;;;8.00;4.65;;;;;;;;;;5005277;28;20187;-52
2022/10/29 14:38:10;;;;;;;8.50;4.50;;;;;;;;;;5002197;28;20176;-54
2022/10/29 14:40:36;;;;;;;9.70;5.10;;;;;;;;;;5004247;28;20200;-53
2022/10/29 14:43:01;;;;;;;7.60;4.50;;;;;;;;;;5004246;28;20203;-52
2022/10/29 14:45:29;;;;;;;9.65;4.95;;;;;;;;;;5004781;28;20172;-56
2022/10/29 14:47:56;;;;;;;6.85;5.30;;;;;;;;;;5000013;28;20200;-52
2022/10/29 14:50:24;;;;;;;8.15;4.65;;;;;;;;;;5004792;28;20198;-55
2022/10/29 14:52:52;;;;;;;6.57;4.07;;;;;;;;;;5003004;28;20234;-53
2022/10/29 14:55:26;;;;;;;7.13;4.45;;;;;;;;;;5002485;28;20552;-53
2022/10/29 14:58:15;;;;;;;8.20;4.88;;;;;;;;;;4999978;28;20219;-55
2022/10/29 15:00:54;;;;;;;6.47;4.10;;;;;;;;;;5018938;28;20220;-51
2022/10/29 15:03:22;;;;;;;6.75;4.10;;;;;;;;;;5009248;28;20692;-51
2022/10/29 15:05:47;;;;;;;9.57;4.95;;;;;;;;;;5007977;28;20601;-51
2022/10/29 15:08:22;;;;;;;9.77;5.05;;;;;;;;;;5007967;28;20708;-49